Time;durP1;ratioP1;P1;durP2;ratioP2;P2;SDS_P1;SDS_P2;PMS_P1;PMS_P2;Temp;Humidity;BMP_temperature;BMP_pressure;BME280_temperature;BME280_humidity;BME280_pressure;Samples;Min_cycle;Max_cycle;Signal;HPM_P1;HPM_P2
2023/07/11 00:00:55;;;;;;;1.92;0.70;;;25.00;1.00;;;;;;4954560;28;20043;-51
2023/07/11 00:03:22;;;;;;;2.65;0.90;;;25.00;1.00;;;;;;4954382;29;20595;-49
2023/07/11 00:06:07;;;;;;;2.85;1.05;;;25.00;1.00;;;;;;4954277;29;20051;-49
2023/07/11 00:08:38;;;;;;;2.95;0.73;;;25.10;1.00;;;;;;4954462;29;20503;-51
2023/07/11 00:11:10;;;;;;;2.78;1.13;;;25.00;1.00;;;;;;4954018;28;20054;-49
2023/07/11 00:13:39;;;;;;;1.95;0.95;;;25.00;1.00;;;;;;4954329;29;20043;-50
2023/07/11 00:16:09;;;;;;;3.08;1.30;;;25.00;1.00;;;;;;4954032;29;20042;-49
2023/07/11 00:18:37;;;;;;;3.13;0.70;;;25.00;1.00;;;;;;4954215;29;20053;-50
2023/07/11 00:21:04;;;;;;;1.38;0.75;;;25.00;1.00;;;;;;4954242;28;20474;-49
2023/07/11 00:23:32;;;;;;;2.45;0.80;;;25.00;1.00;;;;;;4949943;29;20114;-49
2023/07/11 00:25:59;;;;;;;2.83;0.75;;;25.00;1.00;;;;;;4950633;29;20101;-49
2023/07/11 00:28:25;;;;;;;2.80;0.77;;;25.00;1.00;;;;;;4927216;29;20039;-49
2023/07/11 00:30:54;;;;;;;1.38;0.70;;;25.00;1.00;;;;;;4933590;29;20051;-51
2023/07/11 00:33:21;;;;;;;2.35;0.73;;;25.00;1.00;;;;;;4933599;29;20048;-49
2023/07/11 00:35:53;;;;;;;2.38;0.82;;;25.00;1.00;;;;;;4934732;29;20176;-49
2023/07/11 00:38:21;;;;;;;3.30;1.20;;;25.00;1.00;;;;;;4932804;29;20131;-49
2023/07/11 00:40:50;;;;;;;1.92;0.80;;;25.00;1.00;;;;;;4934637;29;20043;-47
2023/07/11 00:43:20;;;;;;;1.90;0.57;;;25.00;1.00;;;;;;4933515;29;20055;-49
2023/07/11 00:45:56;;;;;;;4.03;1.00;;;25.00;1.00;;;;;;4934872;29;20053;-51
2023/07/11 00:48:23;;;;;;;2.00;0.75;;;25.00;1.00;;;;;;4927867;29;20054;-52
2023/07/11 00:50:52;;;;;;;3.90;1.10;;;25.00;1.00;;;;;;4934473;29;20044;-49
2023/07/11 00:53:20;;;;;;;1.35;0.68;;;25.00;1.00;;;;;;4934807;29;20519;-48
2023/07/11 00:55:47;;;;;;;1.10;0.70;;;25.00;1.00;;;;;;4934427;29;20050;-48
2023/07/11 00:58:17;;;;;;;1.95;0.73;;;25.00;1.00;;;;;;4934472;29;20036;-48
2023/07/11 01:00:44;;;;;;;2.28;0.82;;;25.00;1.00;;;;;;4933396;29;20389;-49
2023/07/11 01:03:11;;;;;;;2.22;1.13;;;25.00;1.00;;;;;;4933080;29;20062;-48
2023/07/11 01:05:39;;;;;;;3.78;0.88;;;25.00;1.00;;;;;;4934519;29;20495;-49
2023/07/11 01:08:09;;;;;;;1.83;0.77;;;25.00;1.00;;;;;;4933098;29;20140;-49
2023/07/11 01:10:36;;;;;;;2.50;0.90;;;25.00;1.00;;;;;;4933057;29;20052;-47
2023/07/11 01:13:04;;;;;;;1.50;0.70;;;24.90;1.00;;;;;;4933175;29;20095;-49
2023/07/11 01:15:31;;;;;;;2.92;0.70;;;25.00;1.00;;;;;;4934311;29;20526;-49
2023/07/11 01:17:58;;;;;;;2.95;0.68;;;24.90;1.00;;;;;;4934307;29;20484;-49
2023/07/11 01:20:25;;;;;;;1.65;0.77;;;24.90;1.00;;;;;;4934289;29;20123;-50
2023/07/11 01:22:55;;;;;;;3.17;0.80;;;24.90;1.00;;;;;;4933124;29;20131;-48
2023/07/11 01:25:22;;;;;;;2.00;0.68;;;25.00;1.00;;;;;;4934109;29;20040;-47
2023/07/11 01:27:50;;;;;;;2.20;0.90;;;24.90;1.00;;;;;;4934365;29;20028;-49
2023/07/11 01:30:21;;;;;;;3.08;1.00;;;24.90;1.00;;;;;;4926613;29;20032;-48
2023/07/11 01:32:48;;;;;;;1.40;0.75;;;24.90;1.00;;;;;;4934499;29;20126;-49
2023/07/11 01:35:17;;;;;;;2.17;0.77;;;24.90;1.00;;;;;;4934126;29;20436;-49
2023/07/11 01:37:44;;;;;;;4.00;0.98;;;24.90;1.00;;;;;;4934401;29;20040;-48
2023/07/11 01:40:11;;;;;;;3.17;0.98;;;24.90;1.00;;;;;;4932810;29;20178;-50
2023/07/11 01:42:41;;;;;;;1.67;0.60;;;24.90;1.00;;;;;;4934306;29;20427;-49
2023/07/11 01:45:10;;;;;;;5.63;0.65;;;24.90;1.00;;;;;;4933985;29;20126;-48
2023/07/11 01:47:37;;;;;;;2.47;0.88;;;24.90;1.00;;;;;;4934314;29;20464;-49
2023/07/11 01:50:04;;;;;;;3.08;0.80;;;24.90;1.00;;;;;;4935913;29;20043;-51
2023/07/11 01:52:31;;;;;;;1.58;0.80;;;24.90;1.00;;;;;;4936346;29;20052;-50
2023/07/11 01:54:58;;;;;;;1.90;1.02;;;24.90;1.00;;;;;;4937688;29;20035;-49
2023/07/11 01:57:25;;;;;;;1.60;0.70;;;24.90;1.00;;;;;;4936313;29;20516;-49
2023/07/11 01:59:52;;;;;;;1.95;0.90;;;24.90;1.00;;;;;;4936193;29;20591;-51
2023/07/11 02:02:18;;;;;;;2.45;0.80;;;24.90;1.00;;;;;;4936237;29;20134;-47
2023/07/11 02:04:45;;;;;;;3.45;1.05;;;24.90;1.00;;;;;;4937608;29;20488;-49
2023/07/11 02:07:13;;;;;;;3.67;1.00;;;24.90;1.00;;;;;;4935931;29;20078;-47
2023/07/11 02:09:41;;;;;;;1.30;0.80;;;24.90;1.00;;;;;;4937477;29;20043;-48
2023/07/11 02:12:09;;;;;;;2.30;0.95;;;24.90;1.00;;;;;;4935810;29;20082;-47
2023/07/11 02:14:40;;;;;;;2.80;0.95;;;24.90;1.00;;;;;;4936166;29;20098;-48
2023/07/11 02:17:08;;;;;;;2.67;0.98;;;24.90;1.00;;;;;;4937130;29;20038;-49
2023/07/11 02:19:35;;;;;;;1.27;0.50;;;24.80;1.00;;;;;;4937280;29;20059;-49
2023/07/11 02:22:02;;;;;;;2.20;0.63;;;24.90;1.00;;;;;;4935970;29;20512;-47
2023/07/11 02:24:29;;;;;;;1.73;0.57;;;24.90;1.00;;;;;;4935765;29;20491;-48
2023/07/11 02:26:56;;;;;;;2.05;0.75;;;24.90;1.00;;;;;;4935764;29;20043;-49
2023/07/11 02:29:23;;;;;;;1.88;0.80;;;24.80;1.00;;;;;;4939137;29;20134;-49
2023/07/11 02:31:50;;;;;;;1.70;1.13;;;24.80;1.00;;;;;;4956169;28;20050;-47
2023/07/11 02:34:17;;;;;;;2.22;0.70;;;24.80;1.00;;;;;;4956103;29;20043;-49
2023/07/11 02:36:43;;;;;;;2.58;0.65;;;24.80;1.00;;;;;;4954568;29;20039;-49
2023/07/11 02:39:11;;;;;;;2.22;0.65;;;24.80;1.00;;;;;;4955887;29;20032;-50
2023/07/11 02:41:38;;;;;;;1.00;0.38;;;24.80;1.00;;;;;;4955984;28;20046;-50
2023/07/11 02:44:05;;;;;;;2.65;0.52;;;24.80;1.00;;;;;;4955928;29;20046;-47
2023/07/11 02:46:32;;;;;;;1.20;0.57;;;24.80;1.00;;;;;;4955768;29;20043;-50
2023/07/11 02:48:59;;;;;;;1.58;0.60;;;24.80;1.00;;;;;;4955886;29;20039;-49
2023/07/11 02:51:27;;;;;;;2.80;0.82;;;24.80;1.00;;;;;;4955644;28;20048;-49
2023/07/11 02:53:53;;;;;;;3.42;0.65;;;24.80;1.00;;;;;;4955763;29;20510;-47
2023/07/11 02:56:21;;;;;;;2.35;0.93;;;24.80;1.00;;;;;;4955621;29;20058;-49
2023/07/11 02:58:50;;;;;;;2.35;0.60;;;24.80;1.00;;;;;;4955954;29;20114;-49
2023/07/11 03:01:17;;;;;;;1.92;0.80;;;24.80;1.00;;;;;;4955169;28;20521;-49
2023/07/11 03:03:45;;;;;;;1.50;0.52;;;24.80;1.00;;;;;;4955745;29;20046;-49
2023/07/11 03:06:13;;;;;;;1.25;0.57;;;24.80;1.00;;;;;;4955233;29;20047;-47
2023/07/11 03:08:39;;;;;;;1.40;0.68;;;24.80;1.00;;;;;;4955567;29;20050;-48
2023/07/11 03:11:06;;;;;;;2.08;0.80;;;24.80;1.00;;;;;;4955670;28;20035;-48
2023/07/11 03:13:33;;;;;;;2.45;0.70;;;24.80;1.00;;;;;;4955324;29;20082;-48
2023/07/11 03:16:02;;;;;;;2.38;0.73;;;24.80;1.00;;;;;;4955313;29;20047;-48
2023/07/11 03:18:30;;;;;;;3.28;0.93;;;24.80;1.00;;;;;;4955187;29;20052;-48
2023/07/11 03:20:59;;;;;;;2.08;0.85;;;24.80;1.00;;;;;;4955155;28;20035;-48
2023/07/11 03:23:26;;;;;;;1.63;0.68;;;24.80;1.00;;;;;;4955307;29;20035;-48
2023/07/11 03:25:53;;;;;;;2.47;0.73;;;24.80;1.00;;;;;;4954985;29;20114;-50
2023/07/11 03:28:20;;;;;;;2.53;0.88;;;24.80;1.00;;;;;;4937900;29;20050;-47
2023/07/11 03:30:48;;;;;;;2.22;1.00;;;24.80;1.00;;;;;;4935952;29;20195;-48
2023/07/11 03:33:15;;;;;;;3.47;0.70;;;24.70;1.00;;;;;;4935720;29;20120;-52
2023/07/11 03:35:47;;;;;;;1.92;0.80;;;24.70;1.00;;;;;;4935720;29;20116;-49
2023/07/11 03:38:14;;;;;;;1.50;0.70;;;24.80;1.00;;;;;;4935480;29;20468;-49
2023/07/11 03:40:41;;;;;;;2.75;0.82;;;24.70;1.00;;;;;;4935772;29;20035;-50
2023/07/11 03:43:08;;;;;;;3.53;0.82;;;24.70;1.00;;;;;;4935442;29;20112;-49
2023/07/11 03:45:35;;;;;;;1.85;0.50;;;24.70;1.00;;;;;;4934575;29;20403;-49
2023/07/11 03:48:02;;;;;;;1.02;0.60;;;24.70;1.00;;;;;;4935056;29;20067;-50
2023/07/11 03:50:29;;;;;;;1.77;0.70;;;24.70;1.00;;;;;;4935345;29;20082;-49
2023/07/11 03:52:55;;;;;;;1.50;0.88;;;24.70;1.00;;;;;;4935308;29;20047;-50
2023/07/11 03:55:22;;;;;;;2.20;0.63;;;24.70;1.00;;;;;;4935433;29;20050;-50
2023/07/11 03:57:49;;;;;;;2.45;0.80;;;24.70;1.00;;;;;;4935397;29;20035;-49
2023/07/11 04:00:16;;;;;;;1.33;0.70;;;24.70;1.00;;;;;;4935144;29;20047;-47
2023/07/11 04:02:43;;;;;;;2.45;0.77;;;24.70;1.00;;;;;;4935423;29;20047;-50
2023/07/11 04:05:10;;;;;;;1.27;0.65;;;24.70;1.00;;;;;;4935839;29;20036;-49
2023/07/11 04:07:37;;;;;;;1.25;0.70;;;24.70;1.00;;;;;;4935106;29;20130;-49
2023/07/11 04:10:07;;;;;;;1.08;0.52;;;24.70;1.00;;;;;;4933223;29;20099;-49
2023/07/11 04:12:34;;;;;;;7.22;1.60;;;24.70;1.00;;;;;;4933892;29;20028;-49
2023/07/11 04:15:01;;;;;;;2.78;0.85;;;24.70;1.00;;;;;;4932007;29;20046;-48
2023/07/11 04:17:28;;;;;;;3.13;1.15;;;24.60;1.00;;;;;;4932236;29;20036;-48
2023/07/11 04:19:55;;;;;;;6.30;1.33;;;24.60;1.00;;;;;;4946387;29;20395;-49
2023/07/11 04:22:22;;;;;;;2.63;1.05;;;24.60;1.00;;;;;;4954408;28;20051;-49
2023/07/11 04:24:49;;;;;;;10.55;1.02;;;24.60;1.00;;;;;;4954651;29;20062;-52
2023/07/11 04:27:16;;;;;;;8.65;1.42;;;24.60;1.00;;;;;;4954187;29;20043;-49
2023/07/11 04:29:43;;;;;;;3.78;1.20;;;24.60;1.00;;;;;;4954360;29;20057;-49
2023/07/11 04:32:09;;;;;;;11.95;1.55;;;24.50;1.00;;;;;;4953920;28;20043;-49
2023/07/11 04:34:36;;;;;;;3.63;0.75;;;24.50;1.00;;;;;;4953802;29;20031;-48
2023/07/11 04:37:03;;;;;;;2.40;0.80;;;24.50;1.00;;;;;;4953806;29;20035;-49
2023/07/11 04:39:30;;;;;;;6.55;0.85;;;24.50;1.00;;;;;;4953945;29;20066;-51
2023/07/11 04:41:57;;;;;;;8.63;0.90;;;24.50;1.00;;;;;;4953728;28;20151;-52
2023/07/11 04:44:24;;;;;;;5.50;0.98;;;24.50;1.00;;;;;;4953791;29;20078;-49
2023/07/11 04:46:51;;;;;;;3.28;0.90;;;24.50;1.00;;;;;;4953709;29;20039;-49
2023/07/11 04:49:17;;;;;;;5.07;0.70;;;24.50;1.00;;;;;;4953813;29;20054;-48
2023/07/11 04:51:44;;;;;;;8.48;1.23;;;24.50;1.00;;;;;;4953487;28;20139;-49
2023/07/11 04:54:11;;;;;;;5.68;1.27;;;24.50;1.00;;;;;;4953851;29;20106;-49
2023/07/11 04:56:39;;;;;;;2.47;0.50;;;24.50;1.00;;;;;;4940866;29;20043;-49
2023/07/11 04:59:06;;;;;;;1.67;0.70;;;24.50;1.00;;;;;;4949314;29;20042;-51
2023/07/11 05:01:33;;;;;;;4.93;0.80;;;24.50;1.00;;;;;;4950936;28;20223;-49
2023/07/11 05:04:00;;;;;;;1.23;0.68;;;24.50;1.00;;;;;;4953659;29;20427;-49
2023/07/11 05:06:27;;;;;;;4.57;0.68;;;24.50;1.00;;;;;;4953467;29;20073;-48
2023/07/11 05:08:54;;;;;;;4.45;1.15;;;24.50;1.00;;;;;;4953648;29;20043;-49
2023/07/11 05:11:21;;;;;;;3.70;1.05;;;24.50;1.00;;;;;;4953148;28;20051;-49
2023/07/11 05:13:49;;;;;;;3.95;1.00;;;24.50;1.00;;;;;;4953457;29;20050;-49
2023/07/11 05:16:24;;;;;;;4.35;0.88;;;24.50;1.00;;;;;;4953350;29;20047;-48
2023/07/11 05:18:51;;;;;;;2.05;0.80;;;24.50;1.00;;;;;;4953566;29;20039;-49
2023/07/11 05:21:19;;;;;;;4.32;0.70;;;24.40;1.00;;;;;;4953284;28;20054;-50
2023/07/11 05:23:46;;;;;;;1.65;0.65;;;24.50;1.00;;;;;;4941649;29;20488;-48
2023/07/11 05:26:14;;;;;;;1.83;0.75;;;24.40;1.00;;;;;;4953457;29;20451;-48
2023/07/11 05:28:41;;;;;;;3.47;1.77;;;24.40;1.00;;;;;;4957359;29;20039;-48
2023/07/11 05:31:09;;;;;;;4.05;0.80;;;24.40;1.00;;;;;;4957240;28;20102;-48
2023/07/11 05:33:36;;;;;;;2.45;1.05;;;24.40;1.00;;;;;;4957058;29;20054;-48
2023/07/11 05:38:53;;;;;;;3.58;0.93;;;24.40;1.00;;;;;;4957394;29;20046;-50
2023/07/11 05:41:20;;;;;;;3.10;1.20;;;24.40;1.00;;;;;;4956921;28;20051;-48
2023/07/11 05:43:47;;;;;;;3.45;0.82;;;24.40;1.00;;;;;;4957044;28;20517;-49
2023/07/11 05:46:15;;;;;;;3.20;0.90;;;24.40;1.00;;;;;;4956886;29;20063;-48
2023/07/11 05:48:42;;;;;;;1.65;0.70;;;24.40;1.00;;;;;;4956696;29;20043;-48
2023/07/11 05:51:12;;;;;;;5.00;1.15;;;24.40;1.00;;;;;;4955587;28;20128;-50
2023/07/11 05:53:39;;;;;;;1.95;0.73;;;24.40;1.00;;;;;;4956682;29;20031;-47
2023/07/11 05:56:06;;;;;;;6.75;1.08;;;24.40;1.00;;;;;;4956742;29;20035;-47
2023/07/11 05:58:35;;;;;;;1.55;0.55;;;24.40;1.00;;;;;;4946654;29;20043;-48
2023/07/11 06:01:06;;;;;;;4.60;1.33;;;24.40;1.00;;;;;;4937422;29;20042;-48
2023/07/11 06:03:33;;;;;;;3.70;1.10;;;24.40;1.00;;;;;;4937498;29;20050;-48
2023/07/11 06:06:03;;;;;;;2.22;0.70;;;24.40;1.00;;;;;;4937558;29;20484;-48
2023/07/11 06:08:32;;;;;;;1.67;0.60;;;24.40;1.00;;;;;;4946834;29;20041;-50
2023/07/11 06:11:01;;;;;;;3.72;0.70;;;24.40;1.00;;;;;;4956271;28;20423;-49
2023/07/11 06:13:31;;;;;;;1.90;0.90;;;24.40;1.00;;;;;;4956341;28;20078;-51
2023/07/11 06:16:08;;;;;;;2.92;0.70;;;24.40;1.00;;;;;;4956258;29;20062;-48
2023/07/11 06:18:37;;;;;;;5.10;0.85;;;24.40;1.00;;;;;;4956522;29;20483;-49
2023/07/11 06:21:07;;;;;;;2.38;0.60;;;24.40;1.00;;;;;;4956360;28;20079;-49
2023/07/11 06:23:34;;;;;;;1.80;0.45;;;24.40;1.00;;;;;;4956607;29;20039;-49
2023/07/11 06:26:01;;;;;;;2.10;1.10;;;24.40;1.00;;;;;;4956077;29;20054;-50
2023/07/11 06:28:28;;;;;;;1.77;1.02;;;24.40;1.00;;;;;;4956178;29;20054;-49
2023/07/11 06:30:57;;;;;;;7.47;0.88;;;24.40;1.00;;;;;;4956124;28;20046;-50
2023/07/11 06:33:25;;;;;;;2.00;0.68;;;24.40;1.00;;;;;;4956002;29;20415;-50
2023/07/11 06:35:53;;;;;;;4.38;1.42;;;24.40;1.00;;;;;;4954994;28;20039;-49
2023/07/11 06:38:20;;;;;;;2.58;0.65;;;24.40;1.00;;;;;;4956001;29;20047;-48
2023/07/11 06:40:56;;;;;;;5.65;0.65;;;24.40;1.00;;;;;;4955754;28;20451;-51
2023/07/11 06:43:25;;;;;;;1.50;0.60;;;24.40;1.00;;;;;;4956224;29;20171;-49
2023/07/11 06:45:53;;;;;;;1.38;0.60;;;24.40;1.00;;;;;;4955933;29;20039;-49
2023/07/11 06:48:21;;;;;;;1.50;0.70;;;24.40;1.00;;;;;;4953174;29;20051;-49
2023/07/11 06:50:57;;;;;;;1.10;0.80;;;24.40;1.00;;;;;;4929059;29;20061;-51
2023/07/11 06:53:27;;;;;;;1.52;0.50;;;24.40;1.00;;;;;;4936470;29;20047;-50
2023/07/11 06:55:55;;;;;;;3.22;0.77;;;24.40;1.00;;;;;;4936563;29;20040;-47
2023/07/11 06:58:23;;;;;;;1.50;0.38;;;24.40;1.00;;;;;;4936667;29;20078;-49
2023/07/11 07:01:01;;;;;;;1.20;0.70;;;24.40;1.00;;;;;;4936375;29;20381;-49
2023/07/11 07:03:29;;;;;;;3.30;0.55;;;24.40;1.00;;;;;;4936469;29;20099;-49
2023/07/11 07:06:00;;;;;;;1.75;0.70;;;24.40;1.00;;;;;;4936387;29;20424;-50
2023/07/11 07:08:27;;;;;;;3.10;0.65;;;24.40;1.00;;;;;;4936431;29;20043;-49
2023/07/11 07:10:54;;;;;;;1.85;0.60;;;24.40;1.00;;;;;;4943998;28;20076;-49
2023/07/11 07:13:22;;;;;;;3.80;0.80;;;24.40;1.00;;;;;;4936217;29;20048;-49
2023/07/11 07:15:52;;;;;;;3.30;0.70;;;24.40;1.00;;;;;;4936142;29;20048;-49
2023/07/11 07:18:19;;;;;;;2.03;0.73;;;24.40;1.00;;;;;;4936168;29;20128;-48
2023/07/11 07:20:48;;;;;;;3.10;0.73;;;24.40;1.00;;;;;;4936025;29;20028;-47
2023/07/11 07:23:18;;;;;;;1.45;0.90;;;24.40;1.00;;;;;;4936345;29;20043;-48
2023/07/11 07:25:57;;;;;;;2.33;0.93;;;24.40;1.00;;;;;;4935937;29;20511;-48
2023/07/11 07:28:25;;;;;;;3.08;0.65;;;24.40;1.00;;;;;;4935903;29;20133;-47
2023/07/11 07:30:54;;;;;;;1.77;0.45;;;24.40;1.00;;;;;;4935716;29;20095;-53
2023/07/11 07:33:23;;;;;;;2.38;0.70;;;24.40;1.00;;;;;;4935824;29;20347;-49
2023/07/11 07:36:02;;;;;;;2.28;0.40;;;24.50;1.00;;;;;;4935723;29;20039;-51
2023/07/11 07:38:30;;;;;;;1.33;0.50;;;24.40;1.00;;;;;;4935828;29;20046;-48
2023/07/11 07:41:00;;;;;;;2.00;1.10;;;24.40;1.00;;;;;;4935723;29;20043;-54
2023/07/11 07:43:29;;;;;;;3.85;0.90;;;24.40;1.00;;;;;;4935490;29;20563;-50
2023/07/11 07:45:58;;;;;;;1.92;0.80;;;24.50;1.00;;;;;;4935601;29;20090;-47
2023/07/11 07:48:26;;;;;;;1.75;0.93;;;24.40;1.00;;;;;;4935433;29;20563;-47
2023/07/11 07:51:02;;;;;;;2.33;1.00;;;24.50;1.00;;;;;;4935563;29;20043;-48
2023/07/11 07:53:29;;;;;;;3.63;0.85;;;24.50;1.00;;;;;;4935453;29;20047;-48
2023/07/11 07:56:04;;;;;;;2.13;0.60;;;24.40;1.00;;;;;;4935382;29;20134;-50
2023/07/11 07:58:33;;;;;;;1.42;0.50;;;24.40;1.00;;;;;;4935340;29;20512;-53
2023/07/11 08:01:09;;;;;;;3.05;1.20;;;24.50;1.00;;;;;;4937212;29;20035;-47
2023/07/11 08:03:36;;;;;;;2.58;0.85;;;24.40;1.00;;;;;;4936505;29;20052;-48
2023/07/11 08:06:04;;;;;;;2.03;0.73;;;24.50;1.00;;;;;;4938457;29;20114;-49
2023/07/11 08:08:41;;;;;;;4.43;0.80;;;24.50;1.00;;;;;;4937345;29;20078;-49
2023/07/11 08:11:08;;;;;;;2.65;1.15;;;24.50;1.00;;;;;;4938994;29;20131;-50
2023/07/11 08:13:36;;;;;;;2.80;0.80;;;24.50;1.00;;;;;;4940527;29;20044;-49
2023/07/11 08:16:23;;;;;;;5.85;0.95;;;24.50;1.00;;;;;;4940000;29;20106;-50
2023/07/11 08:18:53;;;;;;;3.65;0.88;;;24.50;1.00;;;;;;4940311;29;20575;-50
2023/07/11 08:21:20;;;;;;;1.20;0.68;;;24.50;1.00;;;;;;4939888;29;20039;-49
2023/07/11 08:23:46;;;;;;;1.75;0.73;;;24.50;1.00;;;;;;4940300;29;20051;-51
2023/07/11 08:26:13;;;;;;;1.58;0.85;;;24.50;1.00;;;;;;4939622;29;20563;-50
2023/07/11 08:28:41;;;;;;;3.65;1.20;;;24.50;1.00;;;;;;4939747;29;20062;-51
2023/07/11 08:31:08;;;;;;;2.75;1.55;;;24.50;1.00;;;;;;4939964;29;20044;-48
2023/07/11 08:33:36;;;;;;;0.85;0.52;;;24.50;1.00;;;;;;4941044;29;20081;-50
2023/07/11 08:36:03;;;;;;;2.97;0.98;;;24.50;1.00;;;;;;4959135;29;20039;-49
2023/07/11 08:38:30;;;;;;;2.10;0.80;;;24.50;1.00;;;;;;4959196;29;20156;-50
2023/07/11 08:40:58;;;;;;;4.47;1.05;;;24.60;1.00;;;;;;4959695;28;20069;-48
2023/07/11 08:43:29;;;;;;;4.70;1.05;;;24.60;1.00;;;;;;4958459;29;20078;-48
2023/07/11 08:46:05;;;;;;;4.57;0.80;;;24.60;1.00;;;;;;4958211;29;20090;-48
2023/07/11 08:48:46;;;;;;;3.83;0.90;;;24.60;1.00;;;;;;4959063;28;20055;-51
2023/07/11 08:51:38;;;;;;;5.00;0.93;;;24.60;1.00;;;;;;4957410;28;20055;-49
2023/07/11 08:54:36;;;;;;;7.47;1.30;;;24.60;1.00;;;;;;4956808;28;20047;-49
2023/07/11 08:57:03;;;;;;;5.85;0.90;;;24.60;1.00;;;;;;4953720;28;20114;-51
2023/07/11 08:59:43;;;;;;;2.60;1.00;;;24.60;1.00;;;;;;4953170;28;20591;-47
2023/07/11 09:02:10;;;;;;;1.80;0.85;;;24.60;1.00;;;;;;4953512;28;20086;-48
2023/07/11 09:04:45;;;;;;;3.70;0.98;;;24.60;1.00;;;;;;4954062;29;20054;-50
2023/07/11 09:07:37;;;;;;;3.28;1.15;;;24.60;1.00;;;;;;4953485;29;20521;-52
2023/07/11 09:10:16;;;;;;;7.68;0.95;;;24.60;1.00;;;;;;4944523;28;20062;-53
2023/07/11 09:12:52;;;;;;;6.60;1.00;;;24.70;1.00;;;;;;4953254;29;20106;-54
2023/07/11 09:15:47;;;;;;;6.43;1.25;;;24.70;1.00;;;;;;4953740;29;20067;-54
2023/07/11 09:18:37;;;;;;;1.85;0.73;;;24.70;1.00;;;;;;4953654;29;20039;-54
2023/07/11 09:21:27;;;;;;;5.32;1.50;;;24.70;1.00;;;;;;4953342;28;20031;-54
2023/07/11 09:24:33;;;;;;;2.22;0.93;;;24.70;1.00;;;;;;4953426;29;20043;-54
2023/07/11 09:27:23;;;;;;;4.22;2.08;;;24.70;1.00;;;;;;4953374;28;20047;-54
2023/07/11 09:29:51;;;;;;;3.20;0.90;;;24.70;1.00;;;;;;4953426;29;20180;-54
2023/07/11 09:32:18;;;;;;;5.60;0.88;;;24.70;1.00;;;;;;4953323;28;20066;-54
2023/07/11 09:34:48;;;;;;;4.20;1.55;;;24.80;1.00;;;;;;4953318;29;20039;-52
2023/07/11 09:37:24;;;;;;;6.03;1.83;;;24.80;1.00;;;;;;4953196;29;20118;-52
2023/07/11 09:40:24;;;;;;;4.28;1.27;;;24.80;1.00;;;;;;4953305;29;20150;-51
2023/07/11 09:42:54;;;;;;;4.10;1.25;;;24.80;1.00;;;;;;4953120;29;20075;-49
2023/07/11 09:45:32;;;;;;;4.07;1.08;;;24.80;1.00;;;;;;4953213;29;20496;-54
2023/07/11 09:48:27;;;;;;;4.00;1.10;;;24.80;1.00;;;;;;4953137;29;20094;-51
2023/07/11 09:50:59;;;;;;;3.30;0.85;;;24.80;1.00;;;;;;4943929;28;20126;-55
2023/07/11 09:53:31;;;;;;;3.20;1.10;;;24.80;1.00;;;;;;4953172;29;20130;-54
2023/07/11 09:56:03;;;;;;;4.60;1.08;;;24.80;1.00;;;;;;4926267;29;20043;-54
2023/07/11 09:58:33;;;;;;;2.97;1.23;;;24.80;1.00;;;;;;4934012;29;20131;-53
2023/07/11 10:01:03;;;;;;;4.57;1.30;;;24.80;1.00;;;;;;4933878;29;20046;-52
2023/07/11 10:03:34;;;;;;;2.85;0.95;;;24.80;1.00;;;;;;4933990;29;20056;-53
2023/07/11 10:06:04;;;;;;;5.00;1.40;;;24.80;1.00;;;;;;4933928;29;20051;-54
2023/07/11 10:08:40;;;;;;;4.55;1.17;;;24.80;1.00;;;;;;4934021;29;20044;-52
2023/07/11 10:11:13;;;;;;;4.30;1.35;;;24.80;1.00;;;;;;4935570;29;20452;-55
2023/07/11 10:13:45;;;;;;;4.65;1.30;;;24.80;1.00;;;;;;4937175;29;20054;-52
2023/07/11 10:16:19;;;;;;;7.75;1.67;;;24.90;1.00;;;;;;4937307;29;20152;-53
2023/07/11 10:18:46;;;;;;;3.72;1.42;;;24.90;1.00;;;;;;4937380;29;20423;-50
2023/07/11 10:21:18;;;;;;;3.42;1.27;;;24.90;1.00;;;;;;4937250;29;20131;-53
2023/07/11 10:23:54;;;;;;;3.97;1.40;;;24.90;1.00;;;;;;4937134;29;20381;-55
2023/07/11 10:26:26;;;;;;;2.95;1.67;;;24.90;1.00;;;;;;4937081;29;20055;-51
2023/07/11 10:29:00;;;;;;;2.33;1.25;;;24.90;1.00;;;;;;4937121;29;20123;-54
2023/07/11 10:31:39;;;;;;;5.68;1.70;;;24.90;1.00;;;;;;4937052;29;20451;-53
2023/07/11 10:34:25;;;;;;;2.67;1.08;;;24.90;1.00;;;;;;4936852;29;20036;-54
2023/07/11 10:36:58;;;;;;;5.53;1.55;;;24.90;1.00;;;;;;4936685;29;20448;-52
2023/07/11 10:39:36;;;;;;;4.18;1.42;;;24.90;1.00;;;;;;4936914;29;20067;-55
2023/07/11 10:42:24;;;;;;;2.95;1.17;;;24.90;1.00;;;;;;4936986;29;20064;-54
2023/07/11 10:45:14;;;;;;;6.07;1.40;;;24.90;1.00;;;;;;4936981;29;20044;-54
2023/07/11 10:47:59;;;;;;;5.25;1.45;;;24.90;1.00;;;;;;4936646;29;20040;-53
2023/07/11 10:50:32;;;;;;;4.10;1.13;;;24.90;1.00;;;;;;4936609;29;20047;-54
2023/07/11 10:53:01;;;;;;;;;;;24.90;1.00;;;;;;4937377;29;20047;-53
2023/07/11 10:55:44;;;;;;;5.80;1.42;;;24.90;1.00;;;;;;4936570;29;19922;-54
2023/07/11 10:58:11;;;;;;;8.88;1.33;;;24.90;1.00;;;;;;4936716;29;20047;-54
2023/07/11 11:00:48;;;;;;;5.03;2.08;;;24.90;1.00;;;;;;4936534;29;20115;-55
2023/07/11 11:03:37;;;;;;;3.97;1.60;;;24.90;1.00;;;;;;4936328;29;20431;-54
2023/07/11 11:06:53;;;;;;;4.00;1.25;;;24.90;1.00;;;;;;4936445;29;20062;-53
2023/07/11 11:09:51;;;;;;;5.03;1.20;;;24.90;1.00;;;;;;4924363;29;20096;-53
2023/07/11 11:12:53;;;;;;;4.88;1.10;;;24.90;1.00;;;;;;4936222;29;20040;-53
2023/07/11 11:15:39;;;;;;;3.00;1.65;;;24.90;1.00;;;;;;4914067;29;20105;-52
2023/07/11 11:18:40;;;;;;;4.90;1.30;;;24.90;1.00;;;;;;4936146;29;20072;-51
2023/07/11 11:21:29;;;;;;;3.97;1.05;;;24.90;1.00;;;;;;4936270;29;20044;-50
2023/07/11 11:24:53;;;;;;;2.65;1.20;;;24.90;1.00;;;;;;4935924;29;20051;-52
2023/07/11 11:27:35;;;;;;;4.43;1.70;;;24.90;1.00;;;;;;4936172;29;20052;-52
2023/07/11 11:30:24;;;;;;;3.67;1.35;;;24.90;1.00;;;;;;4936119;29;20031;-49
2023/07/11 11:32:54;;;;;;;3.00;1.33;;;24.90;1.00;;;;;;4935661;29;20515;-54
2023/07/11 11:35:46;;;;;;;3.10;1.05;;;24.90;1.00;;;;;;4935693;29;20095;-53
2023/07/11 11:38:37;;;;;;;3.95;1.50;;;24.90;1.00;;;;;;4929434;29;20040;-51
2023/07/11 11:41:10;;;;;;;3.40;1.10;;;24.90;1.00;;;;;;4935896;29;20099;-49
2023/07/11 11:43:38;;;;;;;4.80;0.85;;;24.90;1.00;;;;;;4935744;29;20381;-54
2023/07/11 11:46:26;;;;;;;6.32;1.60;;;24.90;1.00;;;;;;4935814;29;20051;-48
2023/07/11 11:49:00;;;;;;;2.45;1.20;;;24.90;1.00;;;;;;4935690;29;20047;-54
2023/07/11 11:51:30;;;;;;;4.05;2.03;;;24.90;1.00;;;;;;4934428;29;20056;-54
2023/07/11 11:54:05;;;;;;;2.95;1.02;;;25.00;1.00;;;;;;4946032;29;20043;-51
2023/07/11 11:56:35;;;;;;;3.85;1.42;;;24.90;1.00;;;;;;4954683;29;20171;-49
2023/07/11 11:59:05;;;;;;;5.22;1.17;;;25.00;1.00;;;;;;4954634;29;20415;-50
2023/07/11 12:01:37;;;;;;;4.18;1.42;;;25.00;1.00;;;;;;4954275;28;20074;-53
2023/07/11 12:04:54;;;;;;;3.70;1.43;;;25.00;1.00;;;;;;4927446;29;20086;-51
2023/07/11 12:07:33;;;;;;;5.53;1.65;;;25.00;1.00;;;;;;4861119;29;20405;-48
2023/07/11 12:10:23;;;;;;;2.33;0.88;;;25.00;1.00;;;;;;4934128;29;20063;-48
2023/07/11 12:13:06;;;;;;;2.63;0.98;;;25.00;1.00;;;;;;4935092;29;20044;-49
2023/07/11 12:15:39;;;;;;;;;;;25.00;1.00;;;;;;4935646;29;20107;-47
2023/07/11 12:18:37;;;;;;;3.00;1.25;;;25.00;1.00;;;;;;4935243;29;20036;-48
2023/07/11 12:21:13;;;;;;;7.25;1.20;;;24.90;1.00;;;;;;4935106;29;20036;-53
2023/07/11 12:23:42;;;;;;;5.00;1.30;;;24.90;1.00;;;;;;4935096;29;20123;-51
2023/07/11 12:26:29;;;;;;;11.68;1.73;;;24.90;1.00;;;;;;4934908;29;20044;-50
2023/07/11 12:29:34;;;;;;;2.45;1.33;;;24.90;1.00;;;;;;4934824;29;20761;-52
2023/07/11 12:32:32;;;;;;;3.85;1.33;;;25.00;1.00;;;;;;4934850;29;20043;-48
2023/07/11 12:35:05;;;;;;;4.20;1.27;;;25.00;1.00;;;;;;4933665;29;20120;-49
2023/07/11 12:37:59;;;;;;;2.70;0.90;;;24.90;1.00;;;;;;4931857;29;20411;-49
2023/07/11 12:40:46;;;;;;;4.47;1.75;;;25.00;1.00;;;;;;4929575;29;20229;-51
2023/07/11 12:43:28;;;;;;;2.20;1.17;;;25.00;1.00;;;;;;4934732;29;20067;-48
2023/07/11 12:46:01;;;;;;;4.47;1.30;;;25.00;1.00;;;;;;4934445;29;20039;-53
2023/07/11 12:48:40;;;;;;;3.42;2.15;;;25.00;1.00;;;;;;4934754;29;20042;-48
2023/07/11 12:51:24;;;;;;;3.53;1.40;;;24.90;1.00;;;;;;4934737;29;20036;-51
2023/07/11 12:54:00;;;;;;;2.40;0.70;;;25.00;1.00;;;;;;4934366;29;20052;-48
2023/07/11 12:56:30;;;;;;;4.97;1.23;;;25.00;1.00;;;;;;4934793;29;20475;-48
2023/07/11 12:58:57;;;;;;;9.13;2.35;;;25.00;1.00;;;;;;4934541;29;20496;-51
2023/07/11 13:01:24;;;;;;;3.65;1.42;;;25.00;1.00;;;;;;4934679;29;20130;-50
2023/07/11 13:03:51;;;;;;;2.83;1.25;;;25.00;1.00;;;;;;4934385;29;20051;-50
2023/07/11 13:06:25;;;;;;;5.78;1.15;;;25.00;1.00;;;;;;4934544;29;20074;-48
2023/07/11 13:08:55;;;;;;;6.75;1.27;;;25.00;1.00;;;;;;4934434;29;20051;-50
2023/07/11 13:11:24;;;;;;;3.72;1.13;;;25.00;1.00;;;;;;4934268;29;20440;-51
2023/07/11 13:13:52;;;;;;;1.85;0.77;;;25.00;1.00;;;;;;4934241;29;20076;-49
2023/07/11 13:16:23;;;;;;;3.80;1.17;;;25.00;1.00;;;;;;4934393;29;20044;-52
2023/07/11 13:18:51;;;;;;;3.42;1.80;;;25.00;1.00;;;;;;4934356;29;20044;-53
2023/07/11 13:21:19;;;;;;;4.72;1.33;;;25.00;1.00;;;;;;4934494;29;20040;-53
2023/07/11 13:23:48;;;;;;;2.25;1.10;;;25.00;1.00;;;;;;4934277;29;20043;-51
2023/07/11 13:26:27;;;;;;;3.67;1.25;;;25.00;1.00;;;;;;4934643;29;20502;-53